Holts Summit, Missouri
Current Conditions -  °F | °C
As of 8:53 PM on Thursday 27 Nov 2014 (Local Time) from KJEF Reporting Station
Clear Clear  
Wind Chill: -1°   Ceiling: Unl
Heat Index: -1°   Visibility: 10mi
Dew Point: -4°   Wind: 3mph
Humidity: 79%   Direction: 110°ESE
Pressure: 30.41"   Gusts: NA
Location:  38.64°N, 92.12°W
Report Text: KJEF 280253Z 11003KT 10SM CLR M01/M04 A3041 RMK AO2 SLP293 T10061039 56014 $
Loading
Personal Weather Stations






























Interactive Weather Map New forecast layout! Learn more

10-Day Weather Forecast

Advertisements
Track Severe Weather on mobile